Time;durP1;ratioP1;P1;durP2;ratioP2;P2;SDS_P1;SDS_P2;PMS_P1;PMS_P2;Temp;Humidity;BMP_temperature;BMP_pressure;BME280_temperature;BME280_humidity;BME280_pressure;Samples;Min_cycle;Max_cycle;Signal;HPM_P1;HPM_P2
2022/12/06 00:01:22;;;;;;;5.00;4.50;;;;;;;2.02;98.38;95696.16;4978442;28;20172;-83
2022/12/06 00:03:51;;;;;;;5.87;4.83;;;;;;;1.92;99.45;95699.25;4995304;28;20290;-81
2022/12/06 00:06:19;;;;;;;5.77;4.77;;;;;;;1.85;99.68;95700.53;4996421;28;20603;-81
2022/12/06 00:08:45;;;;;;;6.53;5.17;;;;;;;1.88;99.49;95695.25;4973555;28;20242;-81
2022/12/06 00:11:12;;;;;;;7.07;5.00;;;;;;;1.94;99.02;95696.59;5005555;28;20259;-83
2022/12/06 00:13:38;;;;;;;5.23;4.73;;;;;;;1.88;99.81;95684.19;4993410;28;20204;-82
2022/12/06 00:16:06;;;;;;;5.90;5.30;;;;;;;1.88;99.78;95689.31;4992309;28;20219;-82
2022/12/06 00:18:32;;;;;;;6.90;5.43;;;;;;;1.94;99.10;95696.59;4999109;28;20187;-82
2022/12/06 00:21:12;;;;;;;5.83;4.93;;;;;;;1.91;99.89;95689.13;4998979;28;20198;-82
2022/12/06 00:23:39;;;;;;;6.13;5.40;;;;;;;1.92;99.40;95686.47;4978132;28;20210;-82
2022/12/06 00:26:05;;;;;;;5.20;4.70;;;;;;;2.00;98.84;95696.25;5000166;28;20184;-82
2022/12/06 00:28:32;;;;;;;6.57;4.93;;;;;;;1.99;99.14;95689.47;5002525;28;20191;-82
2022/12/06 00:31:01;;;;;;;5.33;4.83;;;;;;;1.98;98.52;95683.53;4976671;28;20716;-83
2022/12/06 00:33:27;;;;;;;4.73;4.23;;;;;;;2.00;98.72;95683.44;4983654;28;20195;-83
2022/12/06 00:36:00;;;;;;;5.20;4.37;;;;;;;1.98;98.74;95677.59;5001578;28;20217;-82
2022/12/06 00:38:26;;;;;;;5.57;4.97;;;;;;;2.02;98.60;95684.16;4998039;28;20576;-82
2022/12/06 00:40:59;;;;;;;5.57;4.60;;;;;;;2.10;97.82;95684.53;4985089;28;20187;-82
2022/12/06 00:43:25;;;;;;;4.77;4.27;;;;;;;2.09;97.71;95672.63;4994924;28;20184;-82
2022/12/06 00:45:50;;;;;;;4.77;4.27;;;;;;;2.08;97.63;95676.13;4991089;28;20184;-82
2022/12/06 00:48:16;;;;;;;4.97;4.23;;;;;;;2.09;98.30;95682.06;4978563;28;20189;-83
2022/12/06 00:50:41;;;;;;;5.90;4.37;;;;;;;2.11;97.88;95680.22;4991647;28;20227;-82
2022/12/06 00:53:06;;;;;;;4.97;4.47;;;;;;;2.07;97.82;95678.78;4984890;28;20193;-82
2022/12/06 00:55:31;;;;;;;5.00;4.50;;;;;;;2.07;98.00;95676.22;4991988;28;20630;-83
2022/12/06 00:57:57;;;;;;;4.80;4.27;;;;;;;2.12;97.84;95674.19;4993449;28;20193;-83
2022/12/06 01:00:22;;;;;;;6.13;4.27;;;;;;;2.17;97.45;95674.75;4995156;28;20204;-82
2022/12/06 01:02:47;;;;;;;4.47;3.93;;;;;;;2.17;97.62;95669.63;4998122;28;20192;-83
2022/12/06 01:05:13;;;;;;;5.20;4.47;;;;;;;2.14;97.99;95672.38;4993038;28;20199;-82
2022/12/06 01:07:38;;;;;;;5.10;4.37;;;;;;;2.20;97.72;95669.41;4990871;28;20189;-82
2022/12/06 01:10:04;;;;;;;5.17;4.17;;;;;;;2.21;97.40;95673.66;4993842;28;20212;-82
2022/12/06 01:12:29;;;;;;;5.00;3.90;;;;;;;2.22;97.21;95672.72;4994991;28;20187;-82
2022/12/06 01:14:54;;;;;;;4.40;4.00;;;;;;;2.24;97.61;95668.34;4988214;28;20201;-81
2022/12/06 01:17:20;;;;;;;4.23;3.83;;;;;;;2.14;97.43;95672.38;4997880;28;20185;-82
2022/12/06 01:19:45;;;;;;;4.30;3.90;;;;;;;2.19;97.35;95673.72;4987976;28;20189;-82
2022/12/06 01:22:10;;;;;;;4.53;3.90;;;;;;;2.11;97.48;95672.53;4994206;28;20195;-83
2022/12/06 01:24:36;;;;;;;4.00;3.60;;;;;;;2.18;97.72;95671.25;4991216;28;20212;-82
2022/12/06 01:27:01;;;;;;;4.80;3.50;;;;;;;2.23;97.43;95674.38;4998008;28;20187;-82
2022/12/06 01:29:26;;;;;;;4.03;3.63;;;;;;;2.27;97.16;95675.81;4990476;28;20192;-82
2022/12/06 01:31:52;;;;;;;4.73;4.10;;;;;;;2.30;97.32;95691.03;4994641;28;20306;-82
2022/12/06 01:34:17;;;;;;;3.90;3.50;;;;;;;2.30;97.29;95679.91;4989959;28;20219;-82
2022/12/06 01:36:43;;;;;;;4.37;3.60;;;;;;;2.25;97.32;95677.66;4997349;28;20192;-83
2022/12/06 01:39:09;;;;;;;3.67;3.30;;;;;;;2.28;97.63;95680.03;4977360;28;20194;-81
2022/12/06 01:41:35;;;;;;;3.30;3.00;;;;;;;2.28;97.21;95677.47;4987593;28;20199;-83
2022/12/06 01:44:01;;;;;;;3.50;3.20;;;;;;;2.33;97.40;95674.63;4991117;28;20211;-82
2022/12/06 01:46:33;;;;;;;3.60;3.30;;;;;;;2.38;96.74;95678.53;4993806;28;20189;-82
2022/12/06 01:49:11;;;;;;;3.43;3.00;;;;;;;2.43;96.71;95668.00;4994167;28;20271;-83
2022/12/06 01:51:38;;;;;;;3.50;3.17;;;;;;;2.41;96.69;95678.38;4994562;28;20211;-83
2022/12/06 01:54:05;;;;;;;4.17;2.90;;;;;;;2.41;96.38;95662.16;4978095;28;20875;-82
2022/12/06 01:56:31;;;;;;;3.07;2.73;;;;;;;2.49;96.20;95660.78;4986400;28;20192;-83
2022/12/06 01:58:57;;;;;;;4.93;3.30;;;;;;;2.47;95.75;95656.63;4982912;28;20247;-82
2022/12/06 02:01:24;;;;;;;3.30;3.00;;;;;;;2.44;95.80;95657.66;4997576;28;20234;-82
2022/12/06 02:03:50;;;;;;;3.17;2.87;;;;;;;2.38;96.56;95652.91;4995491;28;20214;-83
2022/12/06 02:06:16;;;;;;;3.13;2.90;;;;;;;2.39;96.75;95659.72;4994536;28;20185;-82
2022/12/06 02:08:42;;;;;;;3.53;3.23;;;;;;;2.42;96.62;95659.50;4990756;28;20272;-82
2022/12/06 02:11:07;;;;;;;3.47;3.17;;;;;;;2.38;96.71;95652.91;4975513;28;20219;-81
2022/12/06 02:13:34;;;;;;;3.40;3.00;;;;;;;2.40;96.37;95652.84;4995614;28;20287;-83
2022/12/06 02:16:33;;;;;;;3.27;2.97;;;;;;;2.43;96.74;95660.31;4999672;28;20195;-83
2022/12/06 02:19:20;;;;;;;5.30;3.40;;;;;;;2.43;96.95;95656.03;4990139;28;20252;-81
2022/12/06 02:21:52;;;;;;;3.90;3.10;;;;;;;2.40;97.00;95656.22;4997353;28;20196;-82
2022/12/06 02:24:26;;;;;;;4.07;3.20;;;;;;;2.42;96.97;95649.25;5002124;28;20203;-83
2022/12/06 02:27:26;;;;;;;5.07;3.33;;;;;;;2.40;97.91;95648.53;4992280;28;20191;-83
2022/12/06 02:30:09;;;;;;;4.70;4.20;;;;;;;2.35;97.76;95653.09;4996880;28;20239;-82
2022/12/06 02:32:56;;;;;;;4.80;4.17;;;;;;;2.24;98.15;95651.22;4996710;28;20188;-81
2022/12/06 02:35:32;;;;;;;4.63;3.60;;;;;;;2.27;98.40;95637.38;4987944;28;20215;-82
2022/12/06 02:38:04;;;;;;;3.63;3.33;;;;;;;2.27;98.24;95639.94;4991846;28;20194;-82
2022/12/06 02:40:34;;;;;;;3.87;3.47;;;;;;;2.21;98.14;95633.47;4993031;28;20214;-82
2022/12/06 02:43:10;;;;;;;4.93;4.13;;;;;;;2.24;98.50;95637.59;4975450;28;20219;-82
2022/12/06 02:45:39;;;;;;;5.50;4.00;;;;;;;2.26;98.57;95634.00;4974956;28;20216;-82
2022/12/06 02:48:06;;;;;;;4.60;4.10;;;;;;;2.37;97.94;95635.06;4996424;28;20198;-82
2022/12/06 02:50:36;;;;;;;4.90;4.00;;;;;;;2.35;98.06;95631.78;4982865;28;20211;-82
2022/12/06 02:53:03;;;;;;;4.57;3.80;;;;;;;2.40;98.01;95630.59;4972292;28;20189;-81
2022/12/06 02:55:29;;;;;;;4.70;4.20;;;;;;;2.35;98.17;95630.03;4993512;28;20303;-82
2022/12/06 02:57:56;;;;;;;8.43;4.57;;;;;;;2.40;98.33;95633.16;4996396;28;20210;-82
2022/12/06 03:00:29;;;;;;;4.27;3.80;;;;;;;2.45;98.63;95632.84;5003479;28;20199;-82
2022/12/06 03:03:03;;;;;;;5.03;4.40;;;;;;;2.36;97.81;95631.69;4991486;28;20196;-81
2022/12/06 03:05:34;;;;;;;5.40;4.67;;;;;;;2.36;98.18;95626.56;5014660;28;20204;-82
2022/12/06 03:08:03;;;;;;;5.10;4.57;;;;;;;2.35;98.29;95630.03;4979370;28;20191;-82
2022/12/06 03:10:46;;;;;;;6.33;4.73;;;;;;;2.28;98.83;95632.16;4987280;28;20227;-83
2022/12/06 03:13:14;;;;;;;5.07;4.57;;;;;;;2.32;98.76;95626.88;4982916;28;20195;-82
2022/12/06 03:15:39;;;;;;;5.07;4.33;;;;;;;2.32;98.55;95622.56;5001475;28;20204;-82
2022/12/06 03:18:16;;;;;;;5.70;5.10;;;;;;;2.27;98.90;95627.94;5004181;28;20648;-83
2022/12/06 03:20:47;;;;;;;5.83;4.40;;;;;;;2.41;98.64;95627.09;4993334;28;20275;-82
2022/12/06 03:23:16;;;;;;;6.13;4.80;;;;;;;2.40;98.30;95628.03;4996683;28;20211;-82
2022/12/06 03:25:42;;;;;;;6.37;4.97;;;;;;;2.45;98.31;95623.41;4995484;28;20184;-83
2022/12/06 03:28:09;;;;;;;6.27;4.93;;;;;;;2.43;98.49;95619.31;5004372;28;20210;-82
2022/12/06 03:30:35;;;;;;;7.00;5.73;;;;;;;2.53;97.63;95618.63;4997290;28;20233;-82
2022/12/06 03:33:01;;;;;;;5.47;4.67;;;;;;;2.60;96.59;95613.13;4992797;28;20183;-82
2022/12/06 03:35:32;;;;;;;5.47;4.10;;;;;;;2.58;96.62;95622.66;4988348;28;20207;-83
2022/12/06 03:38:06;;;;;;;5.17;3.97;;;;;;;2.55;97.01;95613.41;4997321;28;20188;-82
2022/12/06 03:40:34;;;;;;;4.23;3.53;;;;;;;2.53;96.53;95605.81;4971353;28;20582;-83
2022/12/06 03:43:00;;;;;;;4.17;3.30;;;;;;;2.49;97.58;95606.13;4975948;28;20185;-83
2022/12/06 03:45:32;;;;;;;4.40;4.00;;;;;;;2.46;97.99;95612.25;4976756;28;20208;-82
2022/12/06 03:48:12;;;;;;;5.97;4.00;;;;;;;2.47;98.12;95608.78;4968808;28;20223;-83
2022/12/06 03:50:42;;;;;;;4.77;4.27;;;;;;;2.47;98.42;95611.34;4970047;28;20212;-83
2022/12/06 03:53:08;;;;;;;4.73;4.17;;;;;;;2.46;98.61;95604.56;4992047;28;20372;-83
2022/12/06 03:55:33;;;;;;;5.97;4.97;;;;;;;2.46;98.08;95602.00;4994834;28;20226;-83
2022/12/06 03:57:59;;;;;;;5.50;5.00;;;;;;;2.49;98.28;95601.00;4991483;28;20220;-82
2022/12/06 04:00:24;;;;;;;5.90;5.27;;;;;;;2.53;98.50;95610.13;4988477;28;20185;-80
2022/12/06 04:02:49;;;;;;;5.00;4.60;;;;;;;2.50;98.29;95605.19;4981088;28;20193;-82
2022/12/06 04:05:14;;;;;;;5.20;4.67;;;;;;;2.52;98.05;95600.78;4992332;28;20215;-82
2022/12/06 04:07:40;;;;;;;4.90;4.30;;;;;;;2.50;98.46;95606.03;4999166;28;20606;-82
2022/12/06 04:10:06;;;;;;;4.80;4.30;;;;;;;2.46;98.63;95606.28;4995853;28;20235;-82
2022/12/06 04:15:19;;;;;;;5.03;4.20;;;;;;;2.48;98.44;95599.34;5009980;28;20215;-82
2022/12/06 04:23:02;;;;;;;6.00;4.57;;;;;;;2.45;99.16;95592.66;4987730;28;20207;-81
2022/12/06 04:23:17;;;;;;;6.27;5.00;;;;;;;2.43;98.94;95589.38;5001747;28;20184;-81
2022/12/06 04:25:42;;;;;;;6.73;4.60;;;;;;;2.36;99.79;95582.16;4994354;28;20243;-82
2022/12/06 04:39:04;;;;;;;5.03;4.53;;;;;;;2.26;99.77;95577.63;4998325;28;20187;-81
2022/12/06 04:44:13;;;;;;;5.13;4.50;;;;;;;2.25;99.94;95581.09;5001585;28;20775;-80
2022/12/06 04:46:38;;;;;;;6.87;5.03;;;;;;;2.32;99.66;95581.56;4994950;28;20192;-81
2022/12/06 04:49:04;;;;;;;5.50;4.60;;;;;;;2.32;99.08;95573.88;4984223;28;20216;-80
2022/12/06 04:51:29;;;;;;;16.33;12.50;;;;;;;2.15;99.91;95568.97;4983327;28;20204;-81
2022/12/06 04:53:54;;;;;;;16.57;12.23;;;;;;;2.25;100.00;95575.16;4982197;28;20222;-80
2022/12/06 04:56:20;;;;;;;9.13;8.13;;;;;;;2.26;99.75;95571.69;4984648;28;20250;-81
2022/12/06 04:58:45;;;;;;;8.77;7.00;;;;;;;2.27;99.69;95581.81;4995358;28;20192;-81
2022/12/06 05:01:11;;;;;;;6.30;5.70;;;;;;;2.32;99.08;95573.88;4963595;28;20190;-82
2022/12/06 05:03:36;;;;;;;7.67;5.70;;;;;;;2.27;99.25;95573.31;4969207;28;20215;-80
2022/12/06 05:06:02;;;;;;;5.97;5.40;;;;;;;2.30;98.84;95572.28;4993154;28;20184;-82
2022/12/06 05:08:27;;;;;;;5.43;4.77;;;;;;;2.38;99.39;95565.78;4982809;28;21032;-82
2022/12/06 05:10:53;;;;;;;6.07;4.93;;;;;;;2.42;98.85;95572.38;4982188;28;20215;-82
2022/12/06 05:13:19;;;;;;;4.97;4.40;;;;;;;2.48;98.78;95566.84;4994306;28;20207;-82
2022/12/06 05:15:58;;;;;;;5.77;4.87;;;;;;;2.51;98.33;95566.66;4988657;28;20275;-82
2022/12/06 05:18:23;;;;;;;5.97;5.37;;;;;;;2.47;98.54;95569.50;4988425;28;20233;-82
2022/12/06 05:20:49;;;;;;;7.10;6.47;;;;;;;2.42;99.15;95564.66;4975691;28;20680;-82
2022/12/06 05:23:14;;;;;;;6.97;6.10;;;;;;;2.46;98.88;95563.53;4993154;28;20188;-81
2022/12/06 05:25:40;;;;;;;6.90;5.83;;;;;;;2.50;98.98;95559.06;4970735;28;20185;-82
2022/12/06 05:28:05;;;;;;;5.33;4.80;;;;;;;2.50;98.98;95564.19;4987011;28;20192;-82
2022/12/06 05:30:30;;;;;;;6.07;5.17;;;;;;;2.54;98.99;95565.63;4978130;28;20265;-82
2022/12/06 05:32:56;;;;;;;5.93;4.90;;;;;;;2.45;98.81;95564.47;4982142;28;20275;-82
2022/12/06 05:35:21;;;;;;;5.30;4.57;;;;;;;2.36;99.36;95570.19;4987323;28;20208;-82
2022/12/06 05:37:46;;;;;;;5.17;4.17;;;;;;;2.35;99.31;95562.59;4998835;28;20187;-82
2022/12/06 05:40:12;;;;;;;6.53;5.07;;;;;;;2.28;100.00;95568.09;4999005;28;20242;-82
2022/12/06 05:42:41;;;;;;;5.57;4.63;;;;;;;2.34;100.00;95569.47;5001751;28;20206;-80
2022/12/06 05:45:07;;;;;;;7.87;4.90;;;;;;;2.35;100.00;95570.28;4968023;28;20272;-81
2022/12/06 05:47:33;;;;;;;6.00;5.03;;;;;;;2.35;100.00;95571.09;4995316;28;20190;-81
2022/12/06 05:49:58;;;;;;;7.40;6.07;;;;;;;2.43;100.00;95575.75;4990892;28;20187;-82
2022/12/06 05:52:23;;;;;;;6.67;6.03;;;;;;;2.47;99.48;95575.47;5002700;28;20199;-82
2022/12/06 05:54:49;;;;;;;7.33;6.10;;;;;;;2.44;99.56;95575.63;4993688;28;20641;-81
2022/12/06 05:57:14;;;;;;;10.00;6.93;;;;;;;2.42;99.64;95574.94;4994470;28;20191;-83
2022/12/06 05:59:39;;;;;;;9.10;7.27;;;;;;;2.40;99.82;95571.66;4986963;28;20188;-81
2022/12/06 06:02:05;;;;;;;6.87;5.77;;;;;;;2.36;99.58;95569.34;4976600;28;20196;-82
2022/12/06 06:04:30;;;;;;;7.60;5.83;;;;;;;2.37;100.00;95566.69;4994970;28;20208;-82
2022/12/06 06:06:55;;;;;;;6.20;5.00;;;;;;;2.51;99.60;95564.09;4994604;28;20203;-82
2022/12/06 06:09:22;;;;;;;7.23;5.83;;;;;;;2.52;99.41;95552.91;4987250;28;20201;-82
2022/12/06 06:11:47;;;;;;;6.50;5.67;;;;;;;2.54;99.33;95551.06;4978896;28;20212;-82
2022/12/06 06:14:13;;;;;;;6.10;5.50;;;;;;;2.53;98.99;95553.72;4991154;28;20228;-82
2022/12/06 06:16:39;;;;;;;6.67;5.27;;;;;;;2.51;99.45;95561.53;5003503;28;20192;-82
2022/12/06 06:19:04;;;;;;;6.30;5.43;;;;;;;2.50;99.88;95559.06;4988609;28;20186;-82
2022/12/06 06:21:29;;;;;;;5.90;5.30;;;;;;;2.50;99.92;95557.31;4994578;28;20185;-82
2022/12/06 06:23:55;;;;;;;6.40;5.20;;;;;;;2.54;99.61;95560.50;4991429;28;20742;-82
2022/12/06 06:26:21;;;;;;;6.37;4.77;;;;;;;2.56;99.41;95558.66;4995208;28;20193;-82
2022/12/06 06:28:46;;;;;;;6.17;4.90;;;;;;;2.45;99.69;95556.78;4996620;28;20707;-82
2022/12/06 06:31:11;;;;;;;6.40;5.60;;;;;;;2.40;100.00;95558.81;5009611;28;20212;-82
2022/12/06 06:33:37;;;;;;;6.23;5.63;;;;;;;2.49;99.69;95559.97;4998513;28;20215;-82
2022/12/06 06:36:02;;;;;;;5.83;5.23;;;;;;;2.46;99.84;95555.84;4984800;28;20635;-82
2022/12/06 06:38:28;;;;;;;6.03;4.87;;;;;;;2.49;99.68;95563.38;4995634;28;20189;-81
2022/12/06 06:40:53;;;;;;;6.97;5.80;;;;;;;2.54;99.08;95555.38;4978383;28;20298;-82
2022/12/06 06:43:19;;;;;;;23.97;15.37;;;;;;;2.54;99.40;95558.75;4990924;28;20191;-82
2022/12/06 06:45:50;;;;;;;19.27;12.67;;;;;;;2.44;99.94;95556.88;5003340;28;20215;-82
2022/12/06 06:48:16;;;;;;;21.63;14.23;;;;;;;2.50;100.00;95559.88;4995916;28;20564;-82
2022/12/06 06:50:44;;;;;;;28.00;16.90;;;;;;;2.58;99.99;95566.25;5000542;28;20212;-82
2022/12/06 06:53:09;;;;;;;13.60;8.77;;;;;;;2.63;99.53;95569.34;4990276;28;20224;-82
2022/12/06 06:55:35;;;;;;;14.67;9.30;;;;;;;2.60;99.22;95572.09;4995182;28;20217;-82
2022/12/06 06:58:01;;;;;;;20.27;10.67;;;;;;;2.63;99.19;95566.78;4994257;28;20239;-82
2022/12/06 07:00:26;;;;;;;20.43;12.07;;;;;;;2.58;99.64;95568.81;4993039;28;20180;-82
2022/12/06 07:02:51;;;;;;;14.63;8.70;;;;;;;2.62;99.64;95573.66;4970103;28;20255;-84
2022/12/06 07:05:17;;;;;;;9.20;7.13;;;;;;;2.63;99.73;95579.59;4991119;28;20215;-84
2022/12/06 07:07:43;;;;;;;11.33;7.80;;;;;;;2.66;99.69;95576.84;4970627;28;20188;-84
2022/12/06 07:10:08;;;;;;;14.30;11.17;;;;;;;2.66;99.84;95577.66;4988028;28;20573;-84
2022/12/06 07:12:36;;;;;;;11.53;9.30;;;;;;;2.68;99.65;95572.44;4984004;28;20226;-84
2022/12/06 07:15:01;;;;;;;12.97;11.10;;;;;;;2.67;99.50;95583.63;4992418;28;20244;-83
2022/12/06 07:17:27;;;;;;;13.57;11.80;;;;;;;2.72;99.49;95584.94;4983576;28;20188;-83
2022/12/06 07:19:52;;;;;;;9.57;8.50;;;;;;;2.75;99.29;95584.75;4974823;28;20206;-84
2022/12/06 07:22:17;;;;;;;8.60;7.03;;;;;;;2.80;98.89;95582.72;4986288;28;20190;-84
2022/12/06 07:24:43;;;;;;;8.47;7.17;;;;;;;2.78;98.87;95583.75;4968409;28;20621;-84
2022/12/06 07:27:08;;;;;;;8.50;7.60;;;;;;;2.72;99.06;95584.13;4970876;28;20185;-85
2022/12/06 07:29:33;;;;;;;9.13;6.50;;;;;;;2.72;99.19;95584.94;4988592;28;20553;-84
2022/12/06 07:31:58;;;;;;;8.43;6.50;;;;;;;2.71;99.17;95585.88;4978702;28;20209;-84
2022/12/06 07:34:24;;;;;;;11.50;9.50;;;;;;;2.68;99.81;95585.25;4982026;28;20220;-84
2022/12/06 07:36:49;;;;;;;16.80;15.00;;;;;;;2.79;98.89;95582.81;4985581;28;20192;-84
2022/12/06 07:39:14;;;;;;;11.37;9.60;;;;;;;2.66;99.11;95580.22;4987218;28;20203;-84
2022/12/06 07:47:08;;;;;;;11.53;9.67;;;;;;;2.69;99.47;95580.03;4983854;28;20192;-83
2022/12/06 07:49:33;;;;;;;16.27;11.20;;;;;;;2.75;99.41;95578.81;4993025;28;20562;-83
2022/12/06 07:51:58;;;;;;;14.50;12.63;;;;;;;2.81;99.50;95580.97;4983656;28;20243;-81
2022/12/06 07:54:24;;;;;;;13.57;10.40;;;;;;;2.48;100.00;95586.53;4982175;28;20722;-83
2022/12/06 07:56:50;;;;;;;16.73;12.20;;;;;;;2.59;100.00;95580.72;4983880;28;20185;-83
2022/12/06 07:59:15;;;;;;;15.43;12.10;;;;;;;2.69;100.00;95581.78;4961589;28;20192;-82
2022/12/06 08:01:41;;;;;;;16.53;13.40;;;;;;;2.72;100.00;95574.69;4981234;28;20200;-82
2022/12/06 08:04:07;;;;;;;19.83;12.83;;;;;;;2.77;100.00;95580.34;4983123;28;20209;-83
2022/12/06 08:06:33;;;;;;;15.53;12.37;;;;;;;2.87;99.84;95582.31;4980544;28;20242;-82
2022/12/06 08:08:58;;;;;;;19.57;14.47;;;;;;;2.69;100.00;95584.34;4959082;28;20189;-83
2022/12/06 08:11:24;;;;;;;23.43;16.60;;;;;;;2.59;100.00;95584.09;4982355;28;20211;-83
2022/12/06 08:13:50;;;;;;;24.03;17.87;;;;;;;2.75;100.00;95578.81;4981031;28;20309;-83
2022/12/06 08:16:16;;;;;;;27.23;19.33;;;;;;;2.68;100.00;95580.94;4977385;28;20201;-83
2022/12/06 08:18:42;;;;;;;23.27;16.87;;;;;;;2.53;100.00;95574.22;4986798;28;20226;-82
2022/12/06 08:21:08;;;;;;;25.20;17.03;;;;;;;2.62;100.00;95568.50;4986152;28;20263;-83
2022/12/06 08:23:34;;;;;;;21.07;16.23;;;;;;;2.57;100.00;95580.00;4987579;28;20614;-82
2022/12/06 08:26:06;;;;;;;40.70;25.53;;;;;;;2.58;100.00;95572.22;4990089;28;20190;-83
2022/12/06 08:28:32;;;;;;;26.30;18.53;;;;;;;2.62;100.00;95577.94;4985601;28;20292;-83
2022/12/06 08:30:57;;;;;;;34.30;21.57;;;;;;;2.72;100.00;95571.31;4966766;28;20212;-83
2022/12/06 08:33:23;;;;;;;27.83;20.20;;;;;;;2.68;100.00;95575.00;4960028;28;20200;-83
2022/12/06 08:35:50;;;;;;;26.03;18.73;;;;;;;2.70;100.00;95578.28;4982294;28;20290;-83
2022/12/06 08:38:15;;;;;;;27.60;19.03;;;;;;;2.74;100.00;95575.44;4981860;28;20231;-83
2022/12/06 08:40:40;;;;;;;27.87;18.37;;;;;;;2.72;100.00;95573.88;4984631;28;20192;-83
2022/12/06 08:43:06;;;;;;;26.00;18.23;;;;;;;2.69;100.00;95580.03;4987283;28;20200;-83
2022/12/06 08:45:32;;;;;;;28.53;18.77;;;;;;;2.73;100.00;95578.91;4982367;28;20354;-83
2022/12/06 08:48:00;;;;;;;25.50;18.93;;;;;;;2.76;100.00;95583.84;4983869;28;20196;-83
2022/12/06 08:50:25;;;;;;;24.60;18.23;;;;;;;2.74;100.00;95575.44;4989190;28;20211;-82
2022/12/06 08:52:50;;;;;;;24.70;18.13;;;;;;;2.91;100.00;95576.88;4978607;28;20243;-83
2022/12/06 08:55:16;;;;;;;28.50;20.10;;;;;;;2.97;100.00;95571.34;5000766;28;20228;-82
2022/12/06 08:57:41;;;;;;;25.83;18.17;;;;;;;2.90;100.00;95582.94;4972878;28;20200;-82
2022/12/06 09:00:07;;;;;;;28.77;19.17;;;;;;;2.94;100.00;95584.38;4984889;28;20189;-82
2022/12/06 09:02:32;;;;;;;26.10;18.43;;;;;;;2.91;100.00;95592.25;4982703;28;20192;-82
2022/12/06 09:04:58;;;;;;;30.27;19.23;;;;;;;2.92;99.93;95596.50;4968496;28;20213;-82
2022/12/06 09:07:25;;;;;;;31.00;20.13;;;;;;;2.85;100.00;95595.25;4976712;28;20194;-82
2022/12/06 09:09:52;;;;;;;47.03;31.47;;;;;;;2.89;100.00;95598.44;4977227;28;20191;-82
2022/12/06 09:12:17;;;;;;;34.53;25.03;;;;;;;2.91;99.50;95594.81;4963261;28;20211;-82
2022/12/06 09:14:43;;;;;;;30.00;18.93;;;;;;;2.83;99.99;95595.34;4985375;28;20221;-82
2022/12/06 09:17:08;;;;;;;28.80;19.40;;;;;;;2.84;99.67;95598.75;4984183;28;21335;-82
2022/12/06 09:19:33;;;;;;;28.50;19.30;;;;;;;2.89;99.95;95603.56;4957317;28;20230;-81
2022/12/06 09:21:59;;;;;;;29.63;20.97;;;;;;;2.74;100.00;95597.66;4979444;28;20177;-82
2022/12/06 09:24:24;;;;;;;30.47;20.43;;;;;;;2.83;100.00;95597.09;4975833;28;20213;-83
2022/12/06 09:26:49;;;;;;;28.93;20.60;;;;;;;2.81;100.00;95604.88;4956684;28;20187;-82
2022/12/06 09:29:15;;;;;;;30.93;20.23;;;;;;;2.78;100.00;95604.25;4974614;28;20189;-83
2022/12/06 09:31:40;;;;;;;30.93;19.53;;;;;;;2.78;100.00;95599.13;4980941;28;20203;-81
2022/12/06 09:34:07;;;;;;;29.43;20.47;;;;;;;2.94;100.00;95598.97;4977424;28;20205;-82
2022/12/06 09:36:32;;;;;;;32.43;19.87;;;;;;;2.73;100.00;95607.09;4972350;28;20185;-82
2022/12/06 09:39:08;;;;;;;30.23;18.87;;;;;;;2.89;100.00;95608.69;4968453;28;20697;-82
2022/12/06 09:42:01;;;;;;;31.13;20.40;;;;;;;2.96;100.00;95607.38;4976523;28;20290;-82
2022/12/06 09:45:04;;;;;;;95.63;33.57;;;;;;;2.83;100.00;95607.34;4982335;28;20215;-82
2022/12/06 09:47:55;;;;;;;101.83;46.63;;;;;;;2.98;100.00;95611.47;4987564;28;20180;-81
2022/12/06 09:50:37;;;;;;;121.33;22.63;;;;;;;2.90;100.00;95606.00;4961687;28;20200;-82
2022/12/06 09:53:26;;;;;;;108.40;22.50;;;;;;;2.81;100.00;95604.03;4970594;28;20218;-82
2022/12/06 09:56:10;;;;;;;30.23;17.13;;;;;;;2.91;100.00;95604.28;4987059;28;20184;-82
2022/12/06 09:58:38;;;;;;;190.60;23.57;;;;;;;2.79;100.00;95605.91;4993274;28;20272;-80
2022/12/06 10:01:45;;;;;;;123.03;20.00;;;;;;;2.82;100.00;95603.13;4985983;28;20211;-82
2022/12/06 10:04:19;;;;;;;94.63;14.97;;;;;;;2.76;100.00;95603.53;4980060;28;20235;-82
2022/12/06 10:06:56;;;;;;;166.70;18.07;;;;;;;2.79;100.00;95601.59;4972821;28;20186;-81
2022/12/06 10:09:37;;;;;;;322.30;24.00;;;;;;;2.73;100.00;95596.84;4991275;28;20215;-81
2022/12/06 10:12:38;;;;;;;323.10;23.60;;;;;;;2.72;100.00;95599.50;4981948;28;20762;-81
2022/12/06 10:15:22;;;;;;;327.93;28.13;;;;;;;2.76;100.00;95595.84;4963712;28;20223;-82
2022/12/06 10:18:02;;;;;;;60.50;15.50;;;;;;;2.86;100.00;95590.94;4990411;28;20184;-82
2022/12/06 10:20:40;;;;;;;432.40;33.20;;;;;;;2.75;100.00;95592.47;4994879;28;20212;-81
2022/12/06 10:23:18;;;;;;;231.13;19.53;;;;;;;2.81;100.00;95588.66;4992155;28;20193;-82
2022/12/06 10:26:16;;;;;;;160.10;15.97;;;;;;;2.88;100.00;95594.22;4986435;28;20668;-82
2022/12/06 10:28:47;;;;;;;175.20;17.00;;;;;;;2.78;100.00;95589.69;4977654;28;20231;-80
2022/12/06 10:31:55;;;;;;;197.37;17.80;;;;;;;2.74;100.00;95587.41;4984996;28;20623;-81
2022/12/06 10:34:35;;;;;;;52.57;10.93;;;;;;;2.94;100.00;95573.31;4940113;28;20213;-81
2022/12/06 10:37:16;;;;;;;125.70;14.57;;;;;;;2.90;100.00;95567.53;4969349;28;20223;-82
2022/12/06 10:39:59;;;;;;;64.23;11.80;;;;;;;2.95;100.00;95564.69;4973468;28;20191;-82
2022/12/06 10:43:00;;;;;;;166.80;15.00;;;;;;;2.72;100.00;95564.44;4975639;28;20211;-82
2022/12/06 10:48:27;;;;;;;139.37;14.00;;;;;;;2.88;100.00;95555.75;4981746;28;20264;-82
2022/12/06 10:51:04;;;;;;;30.03;11.00;;;;;;;2.94;100.00;95558.75;4962218;28;20231;-82
2022/12/06 10:53:32;;;;;;;32.60;10.37;;;;;;;2.78;100.00;95563.22;4949612;28;20184;-82
2022/12/06 10:56:00;;;;;;;16.53;10.07;;;;;;;2.99;100.00;95564.38;4972646;28;20271;-81
2022/12/06 10:58:36;;;;;;;26.73;11.00;;;;;;;3.01;100.00;95569.44;4973530;28;20200;-81
2022/12/06 11:01:09;;;;;;;25.97;9.63;;;;;;;3.06;100.00;95567.34;4952433;28;20234;-80
2022/12/06 11:03:54;;;;;;;23.63;9.07;;;;;;;3.04;100.00;95559.78;4987473;28;20211;-81
2022/12/06 11:06:27;;;;;;;16.67;9.13;;;;;;;3.02;100.00;95571.06;4951491;28;20192;-81
2022/12/06 11:08:55;;;;;;;14.73;8.80;;;;;;;3.05;100.00;95569.09;4982918;28;20204;-80
2022/12/06 11:11:26;;;;;;;11.67;7.93;;;;;;;3.06;100.00;95563.03;5011847;28;20214;-80
2022/12/06 11:13:55;;;;;;;12.53;7.33;;;;;;;2.97;100.00;95560.28;5011046;28;20200;-80
2022/12/06 11:16:25;;;;;;;11.70;7.60;;;;;;;3.03;100.00;95558.13;4993137;28;20158;-80
2022/12/06 11:18:50;;;;;;;16.50;7.40;;;;;;;2.81;100.00;95563.00;4987966;28;20169;-80
2022/12/06 11:21:39;;;;;;;13.27;7.07;;;;;;;2.96;100.00;95562.00;4985366;28;20194;-80
2022/12/06 11:24:30;;;;;;;9.80;6.40;;;;;;;2.99;100.00;95559.25;4962244;28;20216;-79
2022/12/06 11:27:34;;;;;;;9.40;5.90;;;;;;;2.96;100.00;95551.75;4959309;28;20177;-80
2022/12/06 11:30:15;;;;;;;14.90;9.50;;;;;;;2.99;100.00;95561.81;4960137;28;20259;-80
2022/12/06 11:32:41;;;;;;;14.43;7.67;;;;;;;2.97;100.00;95567.97;4950567;28;20213;-80
2022/12/06 11:35:12;;;;;;;20.70;7.57;;;;;;;2.92;100.00;95568.28;4952509;28;20267;-81
2022/12/06 11:37:37;;;;;;;15.67;7.87;;;;;;;2.85;100.00;95567.03;4936201;28;20204;-81
2022/12/06 11:40:22;;;;;;;40.77;16.83;;;;;;;2.76;100.00;95571.03;4934819;28;20200;-81
2022/12/06 11:42:47;;;;;;;18.60;10.50;;;;;;;2.90;100.00;95571.84;4927007;29;20191;-81
2022/12/06 11:45:23;;;;;;;10.60;7.83;;;;;;;2.86;100.00;95568.69;4952837;28;20216;-81
2022/12/06 11:47:51;;;;;;;8.80;6.23;;;;;;;2.73;100.00;95573.75;4934486;28;20197;-81
2022/12/06 11:50:18;;;;;;;8.17;6.43;;;;;;;2.70;100.00;95566.28;4932020;28;20205;-81
2022/12/06 11:52:50;;;;;;;7.67;5.87;;;;;;;2.68;100.00;95564.75;4949502;29;20193;-81
2022/12/06 11:55:18;;;;;;;6.37;5.43;;;;;;;2.67;100.00;95565.66;4948681;28;20209;-80
2022/12/06 11:57:50;;;;;;;8.00;5.67;;;;;;;2.85;100.00;95569.59;4950938;28;20310;-80
2022/12/06 12:00:20;;;;;;;10.77;6.57;;;;;;;2.83;100.00;95571.44;4928999;28;20197;-79
2022/12/06 12:02:47;;;;;;;7.57;6.13;;;;;;;2.82;100.00;95569.78;4943083;28;20204;-81
2022/12/06 12:05:21;;;;;;;8.67;6.70;;;;;;;2.72;100.00;95568.75;4990660;28;20208;-80
2022/12/06 12:07:51;;;;;;;8.17;7.17;;;;;;;2.68;100.00;95569.88;4973662;28;20184;-79
2022/12/06 12:10:25;;;;;;;10.20;8.07;;;;;;;2.48;100.00;95564.28;4976680;28;20250;-81